sensor_id;sensor_type;location;lat;lon;timestamp;temperature;humidity
18446;DHT22;9352;50.888;4.466;2023-03-04T00:02:21;6.10;99.90
18446;DHT22;9352;50.888;4.466;2023-03-04T00:04:49;6.10;99.90
18446;DHT22;9352;50.888;4.466;2023-03-04T00:07:16;6.20;99.90
18446;DHT22;9352;50.888;4.466;2023-03-04T00:09:43;6.20;99.90
18446;DHT22;9352;50.888;4.466;2023-03-04T00:12:11;6.30;99.90
18446;DHT22;9352;50.888;4.466;2023-03-04T00:14:38;6.30;99.90
18446;DHT22;9352;50.888;4.466;2023-03-04T00:17:05;6.20;99.90
18446;DHT22;9352;50.888;4.466;2023-03-04T00:19:32;6.20;99.90
18446;DHT22;9352;50.888;4.466;2023-03-04T00:22:01;6.20;99.90
18446;DHT22;9352;50.888;4.466;2023-03-04T00:24:28;6.20;99.90
18446;DHT22;9352;50.888;4.466;2023-03-04T00:26:55;6.20;99.90
18446;DHT22;9352;50.888;4.466;2023-03-04T00:29:22;6.20;99.90
18446;DHT22;9352;50.888;4.466;2023-03-04T00:31:49;6.20;99.90
18446;DHT22;9352;50.888;4.466;2023-03-04T00:34:16;6.20;99.90
18446;DHT22;9352;50.888;4.466;2023-03-04T00:36:42;6.20;99.90
18446;DHT22;9352;50.888;4.466;2023-03-04T00:39:11;6.10;99.90
18446;DHT22;9352;50.888;4.466;2023-03-04T00:41:39;6.20;99.90
18446;DHT22;9352;50.888;4.466;2023-03-04T00:44:06;6.20;99.90
18446;DHT22;9352;50.888;4.466;2023-03-04T00:46:33;6.20;99.90
18446;DHT22;9352;50.888;4.466;2023-03-04T00:49:00;6.20;99.90
18446;DHT22;9352;50.888;4.466;2023-03-04T00:51:26;6.20;99.90
18446;DHT22;9352;50.888;4.466;2023-03-04T00:53:53;6.20;99.90
18446;DHT22;9352;50.888;4.466;2023-03-04T00:56:22;6.20;99.90
18446;DHT22;9352;50.888;4.466;2023-03-04T00:58:48;6.30;99.90
18446;DHT22;9352;50.888;4.466;2023-03-04T01:01:15;6.30;99.90
18446;DHT22;9352;50.888;4.466;2023-03-04T01:03:42;6.30;99.90
18446;DHT22;9352;50.888;4.466;2023-03-04T01:06:09;6.30;99.90
18446;DHT22;9352;50.888;4.466;2023-03-04T01:08:37;6.30;99.90
18446;DHT22;9352;50.888;4.466;2023-03-04T01:11:04;6.30;99.90
18446;DHT22;9352;50.888;4.466;2023-03-04T01:13:33;6.30;99.90
18446;DHT22;9352;50.888;4.466;2023-03-04T01:16:00;6.30;99.90
18446;DHT22;9352;50.888;4.466;2023-03-04T01:18:28;6.30;99.90
18446;DHT22;9352;50.888;4.466;2023-03-04T01:20:55;6.30;99.90
18446;DHT22;9352;50.888;4.466;2023-03-04T01:23:23;6.30;99.90
18446;DHT22;9352;50.888;4.466;2023-03-04T01:25:49;6.30;99.90
18446;DHT22;9352;50.888;4.466;2023-03-04T01:28:16;6.30;99.90
18446;DHT22;9352;50.888;4.466;2023-03-04T01:30:45;6.30;99.90
18446;DHT22;9352;50.888;4.466;2023-03-04T01:33:11;6.30;99.90
18446;DHT22;9352;50.888;4.466;2023-03-04T01:35:38;6.30;99.90
18446;DHT22;9352;50.888;4.466;2023-03-04T01:38:05;6.30;99.90
18446;DHT22;9352;50.888;4.466;2023-03-04T01:40:32;6.30;99.90
18446;DHT22;9352;50.888;4.466;2023-03-04T01:42:59;6.30;99.90
18446;DHT22;9352;50.888;4.466;2023-03-04T01:45:26;6.30;99.90
18446;DHT22;9352;50.888;4.466;2023-03-04T01:47:54;6.40;99.90
18446;DHT22;9352;50.888;4.466;2023-03-04T01:50:27;6.40;99.90
18446;DHT22;9352;50.888;4.466;2023-03-04T01:52:55;6.40;99.90
18446;DHT22;9352;50.888;4.466;2023-03-04T01:55:23;6.30;99.90
18446;DHT22;9352;50.888;4.466;2023-03-04T01:57:50;6.40;99.90
18446;DHT22;9352;50.888;4.466;2023-03-04T02:00:23;6.40;99.90
18446;DHT22;9352;50.888;4.466;2023-03-04T02:02:52;6.40;99.90
18446;DHT22;9352;50.888;4.466;2023-03-04T02:05:21;6.40;99.90
18446;DHT22;9352;50.888;4.466;2023-03-04T02:07:50;6.40;99.90
18446;DHT22;9352;50.888;4.466;2023-03-04T02:10:17;6.40;99.90
18446;DHT22;9352;50.888;4.466;2023-03-04T02:12:44;6.50;99.90
18446;DHT22;9352;50.888;4.466;2023-03-04T02:15:11;6.50;99.90
18446;DHT22;9352;50.888;4.466;2023-03-04T02:17:38;6.40;99.90
18446;DHT22;9352;50.888;4.466;2023-03-04T02:20:15;6.40;99.90
18446;DHT22;9352;50.888;4.466;2023-03-04T02:22:50;6.40;99.90
18446;DHT22;9352;50.888;4.466;2023-03-04T02:25:22;6.40;99.90
18446;DHT22;9352;50.888;4.466;2023-03-04T02:27:51;6.40;99.90
18446;DHT22;9352;50.888;4.466;2023-03-04T02:30:20;6.30;99.90
18446;DHT22;9352;50.888;4.466;2023-03-04T02:32:49;6.20;99.90
18446;DHT22;9352;50.888;4.466;2023-03-04T02:35:17;6.20;99.90
18446;DHT22;9352;50.888;4.466;2023-03-04T02:37:44;6.30;99.90
18446;DHT22;9352;50.888;4.466;2023-03-04T02:40:14;6.30;99.90
18446;DHT22;9352;50.888;4.466;2023-03-04T02:42:43;6.30;99.90
18446;DHT22;9352;50.888;4.466;2023-03-04T02:45:45;6.30;99.90
18446;DHT22;9352;50.888;4.466;2023-03-04T02:48:14;6.30;99.90
18446;DHT22;9352;50.888;4.466;2023-03-04T02:50:44;6.30;99.90
18446;DHT22;9352;50.888;4.466;2023-03-04T02:53:11;6.40;99.90
18446;DHT22;9352;50.888;4.466;2023-03-04T02:55:40;6.40;99.90
18446;DHT22;9352;50.888;4.466;2023-03-04T02:58:08;6.40;99.90
18446;DHT22;9352;50.888;4.466;2023-03-04T03:00:35;6.40;99.90
18446;DHT22;9352;50.888;4.466;2023-03-04T03:03:03;6.40;99.90
18446;DHT22;9352;50.888;4.466;2023-03-04T03:05:32;6.40;99.90
18446;DHT22;9352;50.888;4.466;2023-03-04T03:07:59;6.30;99.90
18446;DHT22;9352;50.888;4.466;2023-03-04T03:10:26;6.30;99.90
18446;DHT22;9352;50.888;4.466;2023-03-04T03:12:53;6.30;99.90
18446;DHT22;9352;50.888;4.466;2023-03-04T03:15:20;6.40;99.90
18446;DHT22;9352;50.888;4.466;2023-03-04T03:17:47;6.30;99.90
18446;DHT22;9352;50.888;4.466;2023-03-04T03:20:16;6.30;99.90
18446;DHT22;9352;50.888;4.466;2023-03-04T03:22:43;6.30;99.90
18446;DHT22;9352;50.888;4.466;2023-03-04T03:25:11;6.30;99.90
18446;DHT22;9352;50.888;4.466;2023-03-04T03:27:39;6.30;99.90
18446;DHT22;9352;50.888;4.466;2023-03-04T03:30:08;6.20;99.90
18446;DHT22;9352;50.888;4.466;2023-03-04T03:32:35;6.30;99.90
18446;DHT22;9352;50.888;4.466;2023-03-04T03:35:02;6.30;99.90
18446;DHT22;9352;50.888;4.466;2023-03-04T03:37:31;6.30;99.90
18446;DHT22;9352;50.888;4.466;2023-03-04T03:39:57;6.30;99.90
18446;DHT22;9352;50.888;4.466;2023-03-04T03:42:24;6.40;99.90
18446;DHT22;9352;50.888;4.466;2023-03-04T03:44:51;6.20;99.90
18446;DHT22;9352;50.888;4.466;2023-03-04T03:47:18;6.20;99.90
18446;DHT22;9352;50.888;4.466;2023-03-04T03:49:45;6.20;99.90
18446;DHT22;9352;50.888;4.466;2023-03-04T03:52:12;6.30;99.90
18446;DHT22;9352;50.888;4.466;2023-03-04T03:54:40;6.20;99.90
18446;DHT22;9352;50.888;4.466;2023-03-04T03:57:08;6.30;99.90
18446;DHT22;9352;50.888;4.466;2023-03-04T03:59:35;6.30;99.90
18446;DHT22;9352;50.888;4.466;2023-03-04T04:02:01;6.30;99.90
18446;DHT22;9352;50.888;4.466;2023-03-04T04:04:28;6.20;99.90
18446;DHT22;9352;50.888;4.466;2023-03-04T04:06:55;6.30;99.90
18446;DHT22;9352;50.888;4.466;2023-03-04T04:09:22;6.20;99.90
18446;DHT22;9352;50.888;4.466;2023-03-04T04:11:50;6.20;99.90
18446;DHT22;9352;50.888;4.466;2023-03-04T04:14:17;6.30;99.90
18446;DHT22;9352;50.888;4.466;2023-03-04T04:16:44;6.30;99.90
18446;DHT22;9352;50.888;4.466;2023-03-04T04:19:16;6.20;99.90
18446;DHT22;9352;50.888;4.466;2023-03-04T04:21:43;6.30;99.90
18446;DHT22;9352;50.888;4.466;2023-03-04T04:24:10;6.30;99.90
18446;DHT22;9352;50.888;4.466;2023-03-04T04:26:37;6.30;99.90
18446;DHT22;9352;50.888;4.466;2023-03-04T04:29:05;6.30;99.90
18446;DHT22;9352;50.888;4.466;2023-03-04T04:31:33;6.40;99.90
18446;DHT22;9352;50.888;4.466;2023-03-04T04:34:00;6.30;99.90
18446;DHT22;9352;50.888;4.466;2023-03-04T04:36:27;6.30;99.90
18446;DHT22;9352;50.888;4.466;2023-03-04T04:38:54;6.40;99.90
18446;DHT22;9352;50.888;4.466;2023-03-04T04:41:24;6.40;99.90
18446;DHT22;9352;50.888;4.466;2023-03-04T04:43:51;6.40;99.90
18446;DHT22;9352;50.888;4.466;2023-03-04T04:46:20;6.40;99.90
18446;DHT22;9352;50.888;4.466;2023-03-04T04:48:47;6.40;99.90
18446;DHT22;9352;50.888;4.466;2023-03-04T04:51:14;6.40;99.90
18446;DHT22;9352;50.888;4.466;2023-03-04T04:53:41;6.40;99.90
18446;DHT22;9352;50.888;4.466;2023-03-04T04:56:09;6.40;99.90
18446;DHT22;9352;50.888;4.466;2023-03-04T04:58:36;6.40;99.90
18446;DHT22;9352;50.888;4.466;2023-03-04T05:01:04;6.30;99.90
18446;DHT22;9352;50.888;4.466;2023-03-04T05:03:33;6.20;99.90
18446;DHT22;9352;50.888;4.466;2023-03-04T05:06:00;6.30;99.90
18446;DHT22;9352;50.888;4.466;2023-03-04T05:08:27;6.30;99.90
18446;DHT22;9352;50.888;4.466;2023-03-04T05:10:54;6.30;99.90
18446;DHT22;9352;50.888;4.466;2023-03-04T05:13:21;6.30;99.90
18446;DHT22;9352;50.888;4.466;2023-03-04T05:15:50;6.30;99.90
18446;DHT22;9352;50.888;4.466;2023-03-04T05:18:17;6.20;99.90
18446;DHT22;9352;50.888;4.466;2023-03-04T05:20:49;6.30;99.90
18446;DHT22;9352;50.888;4.466;2023-03-04T05:23:16;6.40;99.90
18446;DHT22;9352;50.888;4.466;2023-03-04T05:25:43;6.40;99.90
18446;DHT22;9352;50.888;4.466;2023-03-04T05:28:09;6.40;99.90
18446;DHT22;9352;50.888;4.466;2023-03-04T05:30:37;6.30;99.90
18446;DHT22;9352;50.888;4.466;2023-03-04T05:33:04;6.30;99.90
18446;DHT22;9352;50.888;4.466;2023-03-04T05:35:33;6.30;99.90
18446;DHT22;9352;50.888;4.466;2023-03-04T05:38:01;6.30;99.90
18446;DHT22;9352;50.888;4.466;2023-03-04T05:40:28;6.30;99.90
18446;DHT22;9352;50.888;4.466;2023-03-04T05:42:55;6.40;99.90
18446;DHT22;9352;50.888;4.466;2023-03-04T05:45:23;6.40;99.90
18446;DHT22;9352;50.888;4.466;2023-03-04T05:47:49;6.40;99.90
18446;DHT22;9352;50.888;4.466;2023-03-04T05:50:17;6.30;99.90
18446;DHT22;9352;50.888;4.466;2023-03-04T05:52:44;6.30;99.90
18446;DHT22;9352;50.888;4.466;2023-03-04T05:55:12;6.30;99.90
18446;DHT22;9352;50.888;4.466;2023-03-04T05:57:39;6.30;99.90
18446;DHT22;9352;50.888;4.466;2023-03-04T06:00:08;6.40;99.90
18446;DHT22;9352;50.888;4.466;2023-03-04T06:02:35;6.30;99.90
18446;DHT22;9352;50.888;4.466;2023-03-04T06:05:02;6.30;99.90
18446;DHT22;9352;50.888;4.466;2023-03-04T06:07:29;6.20;99.90
18446;DHT22;9352;50.888;4.466;2023-03-04T06:09:56;6.20;99.90
18446;DHT22;9352;50.888;4.466;2023-03-04T06:12:24;6.20;99.90
18446;DHT22;9352;50.888;4.466;2023-03-04T06:14:53;6.20;99.90
18446;DHT22;9352;50.888;4.466;2023-03-04T06:17:20;6.20;99.90
18446;DHT22;9352;50.888;4.466;2023-03-04T06:19:47;6.20;99.90
18446;DHT22;9352;50.888;4.466;2023-03-04T06:22:14;6.20;99.90
18446;DHT22;9352;50.888;4.466;2023-03-04T06:24:41;6.30;99.90
18446;DHT22;9352;50.888;4.466;2023-03-04T06:27:07;6.20;99.90
18446;DHT22;9352;50.888;4.466;2023-03-04T06:29:36;6.30;99.90
18446;DHT22;9352;50.888;4.466;2023-03-04T06:32:03;6.30;99.90
18446;DHT22;9352;50.888;4.466;2023-03-04T06:34:30;6.20;99.90
18446;DHT22;9352;50.888;4.466;2023-03-04T06:36:58;6.20;99.90
18446;DHT22;9352;50.888;4.466;2023-03-04T06:39:25;6.20;99.90
18446;DHT22;9352;50.888;4.466;2023-03-04T06:41:52;6.20;99.90
18446;DHT22;9352;50.888;4.466;2023-03-04T06:44:19;6.30;99.90
18446;DHT22;9352;50.888;4.466;2023-03-04T06:46:47;6.30;99.90
18446;DHT22;9352;50.888;4.466;2023-03-04T06:49:14;6.20;99.90
18446;DHT22;9352;50.888;4.466;2023-03-04T06:51:41;6.30;99.90
18446;DHT22;9352;50.888;4.466;2023-03-04T06:54:08;6.30;99.90
18446;DHT22;9352;50.888;4.466;2023-03-04T06:56:35;6.30;99.90
18446;DHT22;9352;50.888;4.466;2023-03-04T06:59:02;6.40;99.90
18446;DHT22;9352;50.888;4.466;2023-03-04T07:01:29;6.40;99.90
18446;DHT22;9352;50.888;4.466;2023-03-04T07:03:58;6.50;99.90
18446;DHT22;9352;50.888;4.466;2023-03-04T07:06:26;6.50;99.90
18446;DHT22;9352;50.888;4.466;2023-03-04T07:08:53;6.40;99.90
18446;DHT22;9352;50.888;4.466;2023-03-04T07:11:21;6.50;99.90
18446;DHT22;9352;50.888;4.466;2023-03-04T07:13:48;6.50;99.90
18446;DHT22;9352;50.888;4.466;2023-03-04T07:16:18;6.60;99.90
18446;DHT22;9352;50.888;4.466;2023-03-04T07:18:45;6.50;99.90
18446;DHT22;9352;50.888;4.466;2023-03-04T07:21:15;6.50;99.90
18446;DHT22;9352;50.888;4.466;2023-03-04T07:23:42;6.50;99.90
18446;DHT22;9352;50.888;4.466;2023-03-04T07:26:09;6.50;99.90
18446;DHT22;9352;50.888;4.466;2023-03-04T07:28:36;6.60;99.90
18446;DHT22;9352;50.888;4.466;2023-03-04T07:31:08;6.60;99.90
18446;DHT22;9352;50.888;4.466;2023-03-04T07:33:35;6.60;99.90
18446;DHT22;9352;50.888;4.466;2023-03-04T07:36:02;6.60;99.90
18446;DHT22;9352;50.888;4.466;2023-03-04T07:38:30;6.70;99.90
18446;DHT22;9352;50.888;4.466;2023-03-04T07:40:58;6.80;99.90
18446;DHT22;9352;50.888;4.466;2023-03-04T07:43:25;6.80;99.90
18446;DHT22;9352;50.888;4.466;2023-03-04T07:45:57;6.80;99.90
18446;DHT22;9352;50.888;4.466;2023-03-04T07:48:25;6.90;99.90
18446;DHT22;9352;50.888;4.466;2023-03-04T07:51:02;6.90;99.90
18446;DHT22;9352;50.888;4.466;2023-03-04T07:53:31;7.00;99.90
18446;DHT22;9352;50.888;4.466;2023-03-04T07:55:58;6.90;99.90
18446;DHT22;9352;50.888;4.466;2023-03-04T07:58:24;6.80;99.90
18446;DHT22;9352;50.888;4.466;2023-03-04T08:00:51;6.80;99.90
18446;DHT22;9352;50.888;4.466;2023-03-04T08:03:18;7.00;99.90
18446;DHT22;9352;50.888;4.466;2023-03-04T08:05:45;7.00;99.90
18446;DHT22;9352;50.888;4.466;2023-03-04T08:08:12;7.00;99.90
18446;DHT22;9352;50.888;4.466;2023-03-04T08:10:40;7.00;99.90
18446;DHT22;9352;50.888;4.466;2023-03-04T08:13:08;7.00;99.90
18446;DHT22;9352;50.888;4.466;2023-03-04T08:15:39;7.00;99.90
18446;DHT22;9352;50.888;4.466;2023-03-04T08:18:06;7.10;99.90
18446;DHT22;9352;50.888;4.466;2023-03-04T08:20:33;7.00;99.90
18446;DHT22;9352;50.888;4.466;2023-03-04T08:23:00;7.10;99.90
18446;DHT22;9352;50.888;4.466;2023-03-04T08:25:27;7.10;99.90
18446;DHT22;9352;50.888;4.466;2023-03-04T08:27:55;7.10;99.90
18446;DHT22;9352;50.888;4.466;2023-03-04T08:30:22;7.20;99.90
18446;DHT22;9352;50.888;4.466;2023-03-04T08:32:49;7.10;99.90
18446;DHT22;9352;50.888;4.466;2023-03-04T08:35:16;6.90;99.90
18446;DHT22;9352;50.888;4.466;2023-03-04T08:37:43;6.90;99.90
18446;DHT22;9352;50.888;4.466;2023-03-04T08:40:12;6.90;99.90
18446;DHT22;9352;50.888;4.466;2023-03-04T08:42:39;7.00;99.90
18446;DHT22;9352;50.888;4.466;2023-03-04T08:45:08;7.00;99.90
18446;DHT22;9352;50.888;4.466;2023-03-04T08:47:35;7.00;99.90
18446;DHT22;9352;50.888;4.466;2023-03-04T08:50:04;7.00;99.90
18446;DHT22;9352;50.888;4.466;2023-03-04T08:52:31;7.00;99.90
18446;DHT22;9352;50.888;4.466;2023-03-04T08:55:00;6.90;99.90
18446;DHT22;9352;50.888;4.466;2023-03-04T08:57:27;7.00;99.90
18446;DHT22;9352;50.888;4.466;2023-03-04T08:59:54;7.00;99.90
18446;DHT22;9352;50.888;4.466;2023-03-04T09:02:22;7.10;99.90
18446;DHT22;9352;50.888;4.466;2023-03-04T09:04:49;7.10;99.90
18446;DHT22;9352;50.888;4.466;2023-03-04T09:07:16;7.10;99.90
18446;DHT22;9352;50.888;4.466;2023-03-04T09:09:43;7.20;99.90
18446;DHT22;9352;50.888;4.466;2023-03-04T09:12:10;7.40;99.90
18446;DHT22;9352;50.888;4.466;2023-03-04T09:14:37;7.40;99.90
18446;DHT22;9352;50.888;4.466;2023-03-04T09:17:04;7.60;99.90
18446;DHT22;9352;50.888;4.466;2023-03-04T09:19:32;7.70;99.90
18446;DHT22;9352;50.888;4.466;2023-03-04T09:21:59;7.40;99.90
18446;DHT22;9352;50.888;4.466;2023-03-04T09:24:26;7.50;99.90
18446;DHT22;9352;50.888;4.466;2023-03-04T09:26:54;7.40;99.90
18446;DHT22;9352;50.888;4.466;2023-03-04T09:29:21;7.50;99.90
18446;DHT22;9352;50.888;4.466;2023-03-04T09:31:48;7.30;99.90
18446;DHT22;9352;50.888;4.466;2023-03-04T09:34:15;7.40;99.90
18446;DHT22;9352;50.888;4.466;2023-03-04T09:36:43;7.50;99.90
18446;DHT22;9352;50.888;4.466;2023-03-04T09:39:11;7.60;99.90
18446;DHT22;9352;50.888;4.466;2023-03-04T09:41:40;7.50;99.90
18446;DHT22;9352;50.888;4.466;2023-03-04T09:44:14;7.70;99.90
18446;DHT22;9352;50.888;4.466;2023-03-04T09:46:44;7.70;99.90
18446;DHT22;9352;50.888;4.466;2023-03-04T09:49:13;7.60;99.90
18446;DHT22;9352;50.888;4.466;2023-03-04T09:51:47;7.70;99.90
18446;DHT22;9352;50.888;4.466;2023-03-04T09:54:20;7.90;99.90
18446;DHT22;9352;50.888;4.466;2023-03-04T09:56:58;7.90;99.90
18446;DHT22;9352;50.888;4.466;2023-03-04T09:59:29;7.90;99.90
18446;DHT22;9352;50.888;4.466;2023-03-04T10:01:59;8.20;99.90
18446;DHT22;9352;50.888;4.466;2023-03-04T10:04:33;8.50;99.90
18446;DHT22;9352;50.888;4.466;2023-03-04T10:07:02;8.70;99.90
18446;DHT22;9352;50.888;4.466;2023-03-04T10:09:36;8.70;99.90
18446;DHT22;9352;50.888;4.466;2023-03-04T10:12:08;8.80;99.90
18446;DHT22;9352;50.888;4.466;2023-03-04T10:14:39;8.70;99.90
18446;DHT22;9352;50.888;4.466;2023-03-04T10:17:13;8.40;99.90
18446;DHT22;9352;50.888;4.466;2023-03-04T10:19:52;8.20;99.90
18446;DHT22;9352;50.888;4.466;2023-03-04T10:22:26;8.30;99.90
18446;DHT22;9352;50.888;4.466;2023-03-04T10:24:57;8.00;99.90
18446;DHT22;9352;50.888;4.466;2023-03-04T10:27:25;8.30;99.90
18446;DHT22;9352;50.888;4.466;2023-03-04T10:29:56;8.20;99.90
18446;DHT22;9352;50.888;4.466;2023-03-04T10:32:24;8.30;99.90
18446;DHT22;9352;50.888;4.466;2023-03-04T10:34:51;8.50;99.90
18446;DHT22;9352;50.888;4.466;2023-03-04T10:37:18;8.20;99.90
18446;DHT22;9352;50.888;4.466;2023-03-04T10:39:46;8.30;99.90
18446;DHT22;9352;50.888;4.466;2023-03-04T10:42:26;7.90;99.90
18446;DHT22;9352;50.888;4.466;2023-03-04T10:44:56;8.40;99.90
18446;DHT22;9352;50.888;4.466;2023-03-04T10:47:24;8.90;99.90
18446;DHT22;9352;50.888;4.466;2023-03-04T10:49:53;9.00;99.90
18446;DHT22;9352;50.888;4.466;2023-03-04T10:52:26;9.50;99.90
18446;DHT22;9352;50.888;4.466;2023-03-04T10:54:57;9.90;99.90
18446;DHT22;9352;50.888;4.466;2023-03-04T10:57:31;9.80;99.90
18446;DHT22;9352;50.888;4.466;2023-03-04T11:00:00;9.80;99.90
18446;DHT22;9352;50.888;4.466;2023-03-04T11:02:29;9.50;99.90
18446;DHT22;9352;50.888;4.466;2023-03-04T11:05:05;9.00;99.90
18446;DHT22;9352;50.888;4.466;2023-03-04T11:07:38;8.50;99.90
18446;DHT22;9352;50.888;4.466;2023-03-04T11:10:15;8.40;99.90
18446;DHT22;9352;50.888;4.466;2023-03-04T11:12:48;8.60;99.90
18446;DHT22;9352;50.888;4.466;2023-03-04T11:15:18;8.50;99.90
18446;DHT22;9352;50.888;4.466;2023-03-04T11:17:51;8.40;99.90
18446;DHT22;9352;50.888;4.466;2023-03-04T11:20:26;8.30;99.90
18446;DHT22;9352;50.888;4.466;2023-03-04T11:22:56;8.10;99.90
18446;DHT22;9352;50.888;4.466;2023-03-04T11:25:30;8.10;99.90
18446;DHT22;9352;50.888;4.466;2023-03-04T11:28:01;7.70;99.90
18446;DHT22;9352;50.888;4.466;2023-03-04T11:30:33;7.90;99.90
18446;DHT22;9352;50.888;4.466;2023-03-04T11:33:11;8.10;99.90
18446;DHT22;9352;50.888;4.466;2023-03-04T11:35:44;8.30;99.90
18446;DHT22;9352;50.888;4.466;2023-03-04T11:38:17;8.60;99.90
18446;DHT22;9352;50.888;4.466;2023-03-04T11:40:49;8.80;99.90
18446;DHT22;9352;50.888;4.466;2023-03-04T11:43:20;8.80;99.90
18446;DHT22;9352;50.888;4.466;2023-03-04T11:46:14;8.50;99.90
18446;DHT22;9352;50.888;4.466;2023-03-04T11:48:55;8.60;99.90
18446;DHT22;9352;50.888;4.466;2023-03-04T11:51:31;8.70;99.90
18446;DHT22;9352;50.888;4.466;2023-03-04T11:54:15;8.80;99.90
18446;DHT22;9352;50.888;4.466;2023-03-04T11:56:47;8.80;99.90
18446;DHT22;9352;50.888;4.466;2023-03-04T11:59:43;8.60;99.90
18446;DHT22;9352;50.888;4.466;2023-03-04T12:02:17;8.80;99.90
18446;DHT22;9352;50.888;4.466;2023-03-04T12:05:20;9.00;99.90
18446;DHT22;9352;50.888;4.466;2023-03-04T12:08:03;9.00;99.90
18446;DHT22;9352;50.888;4.466;2023-03-04T12:10:39;8.80;99.90
18446;DHT22;9352;50.888;4.466;2023-03-04T12:13:26;8.90;99.90
18446;DHT22;9352;50.888;4.466;2023-03-04T12:16:08;8.90;99.90
18446;DHT22;9352;50.888;4.466;2023-03-04T12:18:43;9.10;99.90
18446;DHT22;9352;50.888;4.466;2023-03-04T12:21:30;9.00;99.90
18446;DHT22;9352;50.888;4.466;2023-03-04T12:24:39;8.70;99.90
18446;DHT22;9352;50.888;4.466;2023-03-04T12:27:19;9.00;99.90
18446;DHT22;9352;50.888;4.466;2023-03-04T12:29:55;9.30;99.90
18446;DHT22;9352;50.888;4.466;2023-03-04T12:32:30;9.50;99.90
18446;DHT22;9352;50.888;4.466;2023-03-04T12:35:27;9.60;99.90
18446;DHT22;9352;50.888;4.466;2023-03-04T12:38:06;9.00;99.90
18446;DHT22;9352;50.888;4.466;2023-03-04T12:40:41;9.00;99.90
18446;DHT22;9352;50.888;4.466;2023-03-04T12:43:38;9.20;99.90
18446;DHT22;9352;50.888;4.466;2023-03-04T12:46:17;9.40;99.90
18446;DHT22;9352;50.888;4.466;2023-03-04T12:48:52;9.10;99.90
18446;DHT22;9352;50.888;4.466;2023-03-04T12:51:29;9.30;99.90
18446;DHT22;9352;50.888;4.466;2023-03-04T12:54:06;9.20;99.90
18446;DHT22;9352;50.888;4.466;2023-03-04T12:56:40;9.30;99.90
18446;DHT22;9352;50.888;4.466;2023-03-04T12:59:13;8.90;99.90
18446;DHT22;9352;50.888;4.466;2023-03-04T13:01:45;8.70;99.90
18446;DHT22;9352;50.888;4.466;2023-03-04T13:04:19;8.60;99.90
18446;DHT22;9352;50.888;4.466;2023-03-04T13:06:54;8.80;99.90
18446;DHT22;9352;50.888;4.466;2023-03-04T13:09:28;8.70;99.90
18446;DHT22;9352;50.888;4.466;2023-03-04T13:12:03;8.60;99.90
18446;DHT22;9352;50.888;4.466;2023-03-04T13:14:33;8.50;99.90
18446;DHT22;9352;50.888;4.466;2023-03-04T13:19:51;8.90;99.90
18446;DHT22;9352;50.888;4.466;2023-03-04T13:22:44;9.20;99.90
18446;DHT22;9352;50.888;4.466;2023-03-04T13:25:36;9.50;99.90
18446;DHT22;9352;50.888;4.466;2023-03-04T13:28:15;9.60;99.90
18446;DHT22;9352;50.888;4.466;2023-03-04T13:34:03;9.70;99.90
18446;DHT22;9352;50.888;4.466;2023-03-04T13:39:23;9.70;99.90
18446;DHT22;9352;50.888;4.466;2023-03-04T13:41:51;9.80;99.90
18446;DHT22;9352;50.888;4.466;2023-03-04T13:47:31;9.60;99.90
18446;DHT22;9352;50.888;4.466;2023-03-04T13:50:28;9.50;99.90
18446;DHT22;9352;50.888;4.466;2023-03-04T13:52:59;9.10;99.90
18446;DHT22;9352;50.888;4.466;2023-03-04T13:55:35;9.10;99.90
18446;DHT22;9352;50.888;4.466;2023-03-04T13:58:14;9.30;99.90
18446;DHT22;9352;50.888;4.466;2023-03-04T14:00:48;9.30;99.90
18446;DHT22;9352;50.888;4.466;2023-03-04T14:03:20;9.10;99.90
18446;DHT22;9352;50.888;4.466;2023-03-04T14:06:08;9.20;99.90
18446;DHT22;9352;50.888;4.466;2023-03-04T14:08:36;9.10;99.90
18446;DHT22;9352;50.888;4.466;2023-03-04T14:11:03;9.10;99.90
18446;DHT22;9352;50.888;4.466;2023-03-04T14:13:30;9.10;99.90
18446;DHT22;9352;50.888;4.466;2023-03-04T14:15:58;9.00;99.90
18446;DHT22;9352;50.888;4.466;2023-03-04T14:18:25;8.80;99.90
18446;DHT22;9352;50.888;4.466;2023-03-04T14:20:57;8.80;99.90
18446;DHT22;9352;50.888;4.466;2023-03-04T14:23:27;8.80;99.90
18446;DHT22;9352;50.888;4.466;2023-03-04T14:26:10;8.80;99.90
18446;DHT22;9352;50.888;4.466;2023-03-04T14:28:45;8.70;99.90
18446;DHT22;9352;50.888;4.466;2023-03-04T14:31:20;8.60;99.90
18446;DHT22;9352;50.888;4.466;2023-03-04T14:33:49;8.80;99.90
18446;DHT22;9352;50.888;4.466;2023-03-04T14:36:19;8.90;99.90
18446;DHT22;9352;50.888;4.466;2023-03-04T14:38:51;8.70;99.90
18446;DHT22;9352;50.888;4.466;2023-03-04T14:41:21;8.60;99.90
18446;DHT22;9352;50.888;4.466;2023-03-04T14:43:54;8.60;99.90
18446;DHT22;9352;50.888;4.466;2023-03-04T14:46:24;8.50;99.90
18446;DHT22;9352;50.888;4.466;2023-03-04T14:48:53;8.50;99.90
18446;DHT22;9352;50.888;4.466;2023-03-04T14:51:38;8.70;99.90
18446;DHT22;9352;50.888;4.466;2023-03-04T14:54:06;8.60;99.90
18446;DHT22;9352;50.888;4.466;2023-03-04T14:56:34;8.50;99.90
18446;DHT22;9352;50.888;4.466;2023-03-04T14:59:01;8.60;99.90
18446;DHT22;9352;50.888;4.466;2023-03-04T15:01:31;8.60;99.90
18446;DHT22;9352;50.888;4.466;2023-03-04T15:04:01;8.60;99.90
18446;DHT22;9352;50.888;4.466;2023-03-04T15:06:29;8.60;99.90
18446;DHT22;9352;50.888;4.466;2023-03-04T15:09:00;8.60;99.90
18446;DHT22;9352;50.888;4.466;2023-03-04T15:11:30;8.50;99.90
18446;DHT22;9352;50.888;4.466;2023-03-04T15:13:59;8.50;99.90
18446;DHT22;9352;50.888;4.466;2023-03-04T15:16:50;8.40;99.90
18446;DHT22;9352;50.888;4.466;2023-03-04T15:19:23;8.40;99.90
18446;DHT22;9352;50.888;4.466;2023-03-04T15:22:02;8.30;99.90
18446;DHT22;9352;50.888;4.466;2023-03-04T15:24:30;8.30;99.90
18446;DHT22;9352;50.888;4.466;2023-03-04T15:26:57;8.50;99.90
18446;DHT22;9352;50.888;4.466;2023-03-04T15:29:24;8.50;99.90
18446;DHT22;9352;50.888;4.466;2023-03-04T15:31:51;8.40;99.90
18446;DHT22;9352;50.888;4.466;2023-03-04T15:34:19;8.50;99.90
18446;DHT22;9352;50.888;4.466;2023-03-04T15:36:48;8.60;99.90
18446;DHT22;9352;50.888;4.466;2023-03-04T15:39:17;8.50;99.90
18446;DHT22;9352;50.888;4.466;2023-03-04T15:41:47;8.50;99.90
18446;DHT22;9352;50.888;4.466;2023-03-04T15:44:15;8.60;99.90
18446;DHT22;9352;50.888;4.466;2023-03-04T15:46:42;8.70;99.90
18446;DHT22;9352;50.888;4.466;2023-03-04T15:49:08;8.70;99.90
18446;DHT22;9352;50.888;4.466;2023-03-04T15:51:36;8.60;99.90
18446;DHT22;9352;50.888;4.466;2023-03-04T15:54:03;8.70;99.90
18446;DHT22;9352;50.888;4.466;2023-03-04T15:56:32;8.90;99.90
18446;DHT22;9352;50.888;4.466;2023-03-04T15:59:05;8.80;99.90
18446;DHT22;9352;50.888;4.466;2023-03-04T16:01:32;8.60;99.90
18446;DHT22;9352;50.888;4.466;2023-03-04T16:03:59;8.60;99.90
18446;DHT22;9352;50.888;4.466;2023-03-04T16:06:28;8.70;99.90
18446;DHT22;9352;50.888;4.466;2023-03-04T16:08:56;8.70;99.90
18446;DHT22;9352;50.888;4.466;2023-03-04T16:11:25;8.90;99.90
18446;DHT22;9352;50.888;4.466;2023-03-04T16:13:53;8.90;99.90
18446;DHT22;9352;50.888;4.466;2023-03-04T16:16:21;8.90;99.90
18446;DHT22;9352;50.888;4.466;2023-03-04T16:18:48;8.80;99.90
18446;DHT22;9352;50.888;4.466;2023-03-04T16:21:17;8.80;99.90
18446;DHT22;9352;50.888;4.466;2023-03-04T16:23:46;8.60;99.90
18446;DHT22;9352;50.888;4.466;2023-03-04T16:26:16;8.60;99.90
18446;DHT22;9352;50.888;4.466;2023-03-04T16:28:43;8.60;99.90
18446;DHT22;9352;50.888;4.466;2023-03-04T16:31:11;8.60;99.90
18446;DHT22;9352;50.888;4.466;2023-03-04T16:33:40;8.50;99.90